Time;durP1;ratioP1;P1;durP2;ratioP2;P2;SDS_P1;SDS_P2;PMS_P1;PMS_P2;Temp;Humidity;BMP_temperature;BMP_pressure;BME280_temperature;BME280_humidity;BME280_pressure;Samples;Min_cycle;Max_cycle;Signal;HPM_P1;HPM_P2
2021/05/08 00:01:47;;;;;;;5.72;2.38;;;;;;;21.22;42.27;98876.16;5036530;28;20018;-77
2021/05/08 00:04:13;;;;;;;4.25;2.35;;;;;;;21.01;42.22;98844.94;5018718;28;20022;-76
2021/05/08 00:06:38;;;;;;;4.25;2.53;;;;;;;20.96;42.23;98825.31;5036341;28;20462;-74
2021/05/08 00:09:06;;;;;;;6.55;2.50;;;;;;;21.30;42.18;98888.28;5036173;28;20036;-78
2021/05/08 00:11:32;;;;;;;2.97;2.03;;;;;;;21.05;42.26;98848.69;5018649;28;20079;-77
2021/05/08 00:13:57;;;;;;;4.05;2.10;;;;;;;21.29;42.07;98893.91;5036144;28;20348;-76
2021/05/08 00:16:22;;;;;;;4.32;2.33;;;;;;;21.22;42.27;98897.66;5036152;28;20039;-76
2021/05/08 00:18:48;;;;;;;5.40;2.50;;;;;;;21.17;42.46;98896.78;5036172;28;20026;-76
2021/05/08 00:21:13;;;;;;;2.47;1.98;;;;;;;20.66;42.57;98824.09;5018395;28;20032;-77
2021/05/08 00:23:39;;;;;;;5.65;2.20;;;;;;;20.72;42.63;98847.19;5036302;28;20512;-77
2021/05/08 00:26:04;;;;;;;4.80;2.60;;;;;;;20.78;42.64;98861.44;5036148;28;20024;-77
2021/05/08 00:28:29;;;;;;;6.03;2.40;;;;;;;20.86;42.84;98869.81;5035947;28;20029;-76
2021/05/08 00:30:55;;;;;;;5.57;2.10;;;;;;;20.92;42.75;98887.56;5035776;28;20424;-77
2021/05/08 00:33:20;;;;;;;3.08;2.20;;;;;;;21.06;42.89;98908.56;5035789;28;20140;-77
2021/05/08 00:35:46;;;;;;;3.38;2.17;;;;;;;21.01;42.83;98906.66;5018360;28;20074;-78
2021/05/08 00:38:11;;;;;;;4.07;2.10;;;;;;;20.90;42.84;98881.66;5035615;28;20340;-76
2021/05/08 00:40:37;;;;;;;4.32;2.10;;;;;;;21.01;42.97;98900.47;5035773;28;20038;-77
2021/05/08 00:43:02;;;;;;;5.03;2.08;;;;;;;20.44;43.06;98820.75;5035624;28;20078;-77
2021/05/08 00:45:28;;;;;;;5.10;2.33;;;;;;;20.92;43.10;98900.97;5035769;28;20028;-77
2021/05/08 00:48:03;;;;;;;4.30;2.33;;;;;;;20.67;43.04;98855.22;5035579;28;20133;-76
2021/05/08 00:50:28;;;;;;;6.53;2.00;;;;;;;20.81;43.35;98882.41;5035597;28;20029;-76
2021/05/08 00:52:53;;;;;;;6.30;1.98;;;;;;;20.51;43.52;98854.31;5035354;28;20029;-77
2021/05/08 00:55:19;;;;;;;3.90;1.98;;;;;;;20.71;43.57;98909.16;5035270;28;20495;-75
2021/05/08 00:57:44;;;;;;;6.15;2.60;;;;;;;20.48;43.76;98876.28;5035433;28;20021;-75
2021/05/08 01:00:10;;;;;;;3.45;2.35;;;;;;;20.35;44.22;98894.66;5039158;28;20021;-77
2021/05/08 01:02:36;;;;;;;5.03;2.42;;;;;;;20.27;44.22;98891.41;5022859;28;20021;-76
2021/05/08 01:05:03;;;;;;;4.50;1.80;;;;;;;20.35;44.27;98894.66;5035159;28;20025;-77
2021/05/08 01:07:29;;;;;;;4.70;2.53;;;;;;;20.10;44.49;98861.25;5035341;28;20025;-77
2021/05/08 01:09:55;;;;;;;6.13;2.17;;;;;;;20.40;44.19;98918.88;5035275;28;20033;-76
2021/05/08 01:12:21;;;;;;;5.07;2.30;;;;;;;19.91;44.03;98819.81;5034885;28;20083;-77
2021/05/08 01:14:47;;;;;;;4.53;2.95;;;;;;;20.18;44.04;98846.56;5035126;28;20459;-77
2021/05/08 01:17:12;;;;;;;3.53;2.15;;;;;;;20.22;43.96;98847.66;5034955;28;20025;-76
2021/05/08 01:19:38;;;;;;;6.05;2.63;;;;;;;20.57;43.82;98887.34;5035100;28;20025;-77
2021/05/08 01:22:03;;;;;;;6.43;3.00;;;;;;;20.03;43.64;98796.31;5017206;28;20017;-78
2021/05/08 01:24:29;;;;;;;4.43;2.30;;;;;;;20.58;43.65;98883.59;5034988;28;20027;-75
2021/05/08 01:26:54;;;;;;;5.32;2.17;;;;;;;20.40;43.75;98871.41;5017224;28;20463;-77
2021/05/08 01:29:20;;;;;;;4.90;2.33;;;;;;;20.47;43.45;98877.34;5034857;28;20048;-77
2021/05/08 01:31:45;;;;;;;4.00;2.30;;;;;;;20.25;43.60;98841.78;5034784;28;20025;-77
2021/05/08 01:34:11;;;;;;;3.78;2.30;;;;;;;20.28;43.95;98878.81;5034696;28;20034;-77
2021/05/08 01:36:37;;;;;;;4.72;2.45;;;;;;;20.20;44.03;98876.59;5034748;28;20127;-74
2021/05/08 01:39:04;;;;;;;4.40;2.25;;;;;;;20.36;44.00;98907.00;5034587;28;20432;-77
2021/05/08 01:41:30;;;;;;;3.72;2.13;;;;;;;20.13;44.19;98892.91;5034729;28;20459;-76
2021/05/08 01:43:55;;;;;;;5.00;2.28;;;;;;;20.30;44.29;98909.66;5034845;28;20033;-77
2021/05/08 01:46:21;;;;;;;7.82;2.28;;;;;;;20.25;44.34;98906.94;5034564;28;20463;-77
2021/05/08 01:48:46;;;;;;;3.17;1.85;;;;;;;20.33;44.40;98915.56;5034611;28;20113;-76
2021/05/08 01:51:13;;;;;;;4.30;2.00;;;;;;;19.99;44.38;98876.41;5034426;28;20399;-77
2021/05/08 01:53:38;;;;;;;6.20;1.92;;;;;;;20.14;44.52;98910.59;5017099;28;20056;-77
2021/05/08 01:56:05;;;;;;;6.95;2.22;;;;;;;20.16;44.49;98915.69;5034485;28;20051;-78
2021/05/08 01:58:31;;;;;;;4.13;2.03;;;;;;;19.96;44.77;98911.75;5034675;28;20030;-79
2021/05/08 02:00:57;;;;;;;6.07;2.08;;;;;;;20.20;44.50;98936.38;5034529;28;20076;-77
2021/05/08 02:03:22;;;;;;;6.40;2.38;;;;;;;19.94;44.65;98894.31;5034499;28;20018;-77
2021/05/08 02:05:48;;;;;;;3.65;1.92;;;;;;;20.17;44.67;98920.81;5034481;28;20083;-76
2021/05/08 02:08:14;;;;;;;4.53;1.73;;;;;;;19.90;44.63;98888.66;5017347;28;20021;-77
2021/05/08 02:10:42;;;;;;;5.30;1.92;;;;;;;20.29;44.51;98931.34;5018513;28;20030;-77
2021/05/08 02:13:08;;;;;;;4.68;2.30;;;;;;;20.02;44.94;98911.81;5036052;28;20025;-77
2021/05/08 02:15:35;;;;;;;6.18;2.30;;;;;;;19.60;45.07;98854.38;5034965;28;20159;-77
2021/05/08 02:18:05;;;;;;;7.07;2.17;;;;;;;20.13;45.29;98935.78;5034250;28;20021;-78
2021/05/08 02:20:33;;;;;;;5.03;2.20;;;;;;;20.11;45.26;98929.06;5016867;28;20372;-78
2021/05/08 02:23:01;;;;;;;6.00;2.00;;;;;;;19.85;45.46;98879.78;5035919;28;20024;-77
2021/05/08 02:25:28;;;;;;;6.20;2.35;;;;;;;20.15;45.37;98922.94;5038155;28;20032;-74
2021/05/08 02:27:54;;;;;;;4.20;2.28;;;;;;;20.10;45.30;98911.38;5038187;28;20033;-76
2021/05/08 02:30:25;;;;;;;7.07;2.20;;;;;;;20.17;45.25;98923.50;5038172;28;20335;-74
2021/05/08 02:32:51;;;;;;;5.97;2.10;;;;;;;20.16;45.27;98929.91;5038229;28;20021;-77
2021/05/08 02:35:18;;;;;;;5.90;2.22;;;;;;;19.83;45.63;98885.38;5037970;28;20034;-75
2021/05/08 02:37:43;;;;;;;5.50;2.25;;;;;;;19.97;45.64;98921.41;5038007;28;20021;-77
2021/05/08 02:40:16;;;;;;;4.55;2.30;;;;;;;19.58;45.74;98861.03;5038045;28;20439;-74
2021/05/08 02:42:42;;;;;;;4.35;2.00;;;;;;;19.87;45.56;98913.28;5028099;28;20018;-76
2021/05/08 02:45:08;;;;;;;5.45;2.00;;;;;;;19.67;45.54;98880.94;5037735;28;20068;-77
2021/05/08 02:47:36;;;;;;;3.90;2.17;;;;;;;20.08;45.58;98945.66;5037862;28;20033;-77
2021/05/08 02:50:01;;;;;;;7.60;2.38;;;;;;;19.91;45.34;98935.00;5037813;28;20018;-78
2021/05/08 02:52:27;;;;;;;4.57;2.30;;;;;;;20.09;45.76;98972.19;5037641;28;20029;-76
2021/05/08 02:54:52;;;;;;;7.15;2.10;;;;;;;20.04;45.82;98980.16;5020289;28;20022;-76
2021/05/08 02:57:17;;;;;;;9.23;2.60;;;;;;;19.64;45.98;98930.47;5038631;28;20116;-77
2021/05/08 02:59:43;;;;;;;5.22;2.10;;;;;;;20.02;46.04;98970.75;5040900;28;20029;-76
2021/05/08 03:02:09;;;;;;;4.75;2.67;;;;;;;20.05;46.17;98979.09;5039289;28;20024;-77
2021/05/08 03:04:35;;;;;;;9.65;2.50;;;;;;;20.07;46.10;98986.91;5019978;28;20036;-77
2021/05/08 03:07:04;;;;;;;9.32;3.10;;;;;;;19.97;46.26;98979.56;5037324;28;20025;-76
2021/05/08 03:09:30;;;;;;;4.95;2.80;;;;;;;19.89;46.53;98993.41;5037485;28;20064;-77
2021/05/08 03:11:57;;;;;;;6.53;2.78;;;;;;;19.91;46.34;98988.59;5019864;28;20104;-76
2021/05/08 03:14:22;;;;;;;7.53;2.72;;;;;;;19.82;46.32;98972.16;5037467;28;20100;-78
2021/05/08 03:16:48;;;;;;;8.13;3.00;;;;;;;19.88;46.40;98984.56;5037612;28;20124;-77
2021/05/08 03:19:13;;;;;;;10.40;3.05;;;;;;;19.68;46.20;98962.91;5037239;28;20017;-75
2021/05/08 03:21:39;;;;;;;7.40;2.50;;;;;;;19.67;46.24;98951.38;5037350;28;20025;-77
2021/05/08 03:24:05;;;;;;;5.97;2.75;;;;;;;19.91;46.10;99008.16;5020392;28;20065;-76
2021/05/08 03:26:31;;;;;;;6.50;2.78;;;;;;;19.95;46.37;99016.50;5039099;28;20032;-77
2021/05/08 03:28:57;;;;;;;8.65;3.08;;;;;;;19.68;46.32;99001.22;5039292;28;20018;-76
2021/05/08 03:31:23;;;;;;;6.28;2.47;;;;;;;19.70;46.74;99027.75;5039191;28;20024;-78
2021/05/08 03:33:49;;;;;;;7.65;2.60;;;;;;;19.63;46.52;99017.22;5019444;28;20356;-77
2021/05/08 03:36:14;;;;;;;6.75;2.85;;;;;;;19.75;46.45;99029.69;5036993;28;20025;-76
2021/05/08 03:38:39;;;;;;;5.68;2.70;;;;;;;19.60;46.36;99014.25;5037147;28;20027;-75
2021/05/08 03:41:05;;;;;;;7.20;2.90;;;;;;;19.62;46.56;99047.75;5019298;28;20448;-77
2021/05/08 03:43:30;;;;;;;6.32;3.17;;;;;;;19.31;46.71;99002.84;5036875;28;20440;-76
2021/05/08 03:45:56;;;;;;;8.55;4.40;;;;;;;19.38;47.18;99038.28;5036965;28;20474;-77
2021/05/08 03:48:23;;;;;;;12.20;4.78;;;;;;;19.52;47.54;99076.22;5037967;28;20120;-77
2021/05/08 03:50:48;;;;;;;11.43;6.40;;;;;;;19.38;47.95;99069.59;5021228;28;20368;-76
2021/05/08 03:53:14;;;;;;;9.77;7.30;;;;;;;19.49;48.46;99085.56;5038225;28;20029;-75
2021/05/08 03:55:40;;;;;;;14.25;8.23;;;;;;;19.32;48.86;99074.91;5038120;28;20096;-77
2021/05/08 03:58:06;;;;;;;14.18;8.00;;;;;;;19.29;49.16;99064.66;5037314;28;20025;-77
2021/05/08 04:00:32;;;;;;;11.00;8.25;;;;;;;19.75;49.32;99134.16;5037323;28;20021;-76
2021/05/08 04:02:59;;;;;;;10.73;8.18;;;;;;;19.41;49.36;99066.44;5036785;28;20049;-78
2021/05/08 04:05:24;;;;;;;14.18;8.90;;;;;;;19.77;49.40;99129.34;5036755;28;20068;-74
2021/05/08 04:07:49;;;;;;;12.55;9.40;;;;;;;19.29;49.56;99058.47;5036872;28;20049;-77
2021/05/08 04:10:15;;;;;;;11.32;8.50;;;;;;;19.68;49.89;99118.25;5036555;28;20087;-77
2021/05/08 04:12:41;;;;;;;12.23;8.30;;;;;;;19.80;49.74;99140.38;5019467;28;20044;-78
2021/05/08 04:15:06;;;;;;;12.05;8.40;;;;;;;19.46;49.90;99091.41;5038366;28;20021;-77
2021/05/08 04:17:32;;;;;;;14.52;8.23;;;;;;;19.65;49.86;99119.56;5038631;28;20025;-77
2021/05/08 04:19:57;;;;;;;10.77;8.13;;;;;;;19.89;49.93;99163.00;5037738;28;20130;-75
2021/05/08 04:22:23;;;;;;;13.27;8.50;;;;;;;19.75;50.09;99152.91;5039054;28;20043;-78
2021/05/08 04:24:48;;;;;;;13.15;8.77;;;;;;;19.35;50.33;99116.44;5021571;28;20018;-77
2021/05/08 04:27:14;;;;;;;12.02;7.80;;;;;;;19.65;50.35;99169.63;5036950;28;20329;-77
2021/05/08 04:29:39;;;;;;;12.25;7.68;;;;;;;19.48;50.48;99160.78;5037863;28;20101;-76
2021/05/08 04:32:04;;;;;;;11.50;7.57;;;;;;;19.65;50.22;99180.34;5037910;28;20076;-77
2021/05/08 04:34:30;;;;;;;11.02;7.72;;;;;;;19.61;50.57;99179.22;5037804;28;20021;-77
2021/05/08 04:36:55;;;;;;;10.45;7.03;;;;;;;19.45;50.05;99140.66;5037619;28;20030;-77
2021/05/08 04:39:21;;;;;;;11.95;7.35;;;;;;;19.84;49.97;99191.59;5037473;28;20109;-77
2021/05/08 04:41:47;;;;;;;10.45;5.82;;;;;;;19.88;49.33;99195.41;5020359;28;20033;-78
2021/05/08 04:44:12;;;;;;;9.50;5.57;;;;;;;19.24;49.08;99098.56;5037781;28;20017;-77
2021/05/08 04:46:38;;;;;;;7.63;4.57;;;;;;;19.77;48.36;99170.34;5037524;28;20032;-76
2021/05/08 04:49:03;;;;;;;7.30;4.18;;;;;;;20.07;48.01;99204.81;5038020;28;20024;-78
2021/05/08 04:51:28;;;;;;;7.45;3.75;;;;;;;19.92;47.33;99156.34;5037612;28;20155;-78
2021/05/08 04:53:54;;;;;;;5.70;3.75;;;;;;;20.27;46.72;99213.13;5037956;28;20025;-76
2021/05/08 04:56:21;;;;;;;7.38;4.70;;;;;;;20.28;46.81;99225.47;5035551;28;20029;-76
2021/05/08 04:58:47;;;;;;;5.78;4.13;;;;;;;19.89;46.86;99157.66;5018006;28;20036;-77
2021/05/08 05:01:12;;;;;;;7.80;4.55;;;;;;;20.28;46.80;99213.94;5035364;28;20026;-76
2021/05/08 05:03:37;;;;;;;9.68;5.40;;;;;;;20.21;46.71;99198.03;5035461;28;20094;-77
2021/05/08 05:06:03;;;;;;;7.85;5.20;;;;;;;20.36;46.55;99215.34;5035216;28;20029;-77
2021/05/08 05:08:29;;;;;;;7.28;4.60;;;;;;;20.31;46.72;99218.78;5035303;28;20025;-77
2021/05/08 05:10:55;;;;;;;8.35;5.00;;;;;;;20.40;46.58;99237.97;5035206;28;20026;-77
2021/05/08 05:13:24;;;;;;;7.10;4.82;;;;;;;20.35;46.37;99248.59;5035023;28;20437;-78
2021/05/08 05:15:51;;;;;;;5.38;4.20;;;;;;;20.45;46.18;99243.38;5035104;28;20060;-77
2021/05/08 05:18:17;;;;;;;10.30;4.53;;;;;;;20.30;45.83;99217.16;5035048;28;20028;-76
2021/05/08 05:20:43;;;;;;;6.60;4.38;;;;;;;20.49;45.63;99247.19;5017511;28;20017;-77
2021/05/08 05:23:09;;;;;;;13.73;4.90;;;;;;;20.63;45.38;99264.53;5017409;28;20021;-77
2021/05/08 05:25:35;;;;;;;7.32;4.40;;;;;;;20.56;45.29;99245.13;5034859;28;20033;-77
2021/05/08 05:28:00;;;;;;;11.13;5.25;;;;;;;20.47;44.89;99227.84;5034749;28;20028;-76
2021/05/08 05:30:26;;;;;;;7.97;4.63;;;;;;;20.42;44.85;99225.13;5017306;28;20475;-76
2021/05/08 05:32:51;;;;;;;11.68;5.03;;;;;;;20.22;44.78;99207.69;5034819;28;20033;-75
2021/05/08 05:35:17;;;;;;;8.93;5.20;;;;;;;20.22;44.96;99223.78;5034841;28;20025;-77
2021/05/08 05:37:42;;;;;;;7.07;5.07;;;;;;;20.56;44.98;99266.59;5034763;28;20025;-77
2021/05/08 05:40:08;;;;;;;10.77;5.07;;;;;;;20.04;44.99;99191.06;5034598;28;20027;-76
2021/05/08 05:42:34;;;;;;;6.75;5.32;;;;;;;20.47;45.07;99265.41;5034619;28;20017;-77
2021/05/08 05:44:59;;;;;;;11.27;5.30;;;;;;;20.48;45.36;99269.72;5034703;28;20105;-77
2021/05/08 05:47:27;;;;;;;9.38;5.68;;;;;;;20.03;45.23;99200.16;5034601;28;20104;-77
2021/05/08 05:49:54;;;;;;;7.50;5.60;;;;;;;20.54;45.21;99261.47;5034682;28;20118;-77
2021/05/08 05:52:21;;;;;;;8.93;5.85;;;;;;;20.61;45.26;99262.09;5034482;28;20076;-77
2021/05/08 05:54:48;;;;;;;8.05;5.90;;;;;;;20.61;45.40;99251.38;5034607;28;20026;-77
2021/05/08 05:57:14;;;;;;;8.45;5.10;;;;;;;20.79;45.18;99258.28;5016174;28;20021;-74
2021/05/08 05:59:41;;;;;;;8.32;5.47;;;;;;;20.83;44.54;99258.63;5034591;28;20031;-77
2021/05/08 06:02:08;;;;;;;7.35;5.20;;;;;;;20.83;44.31;99250.56;5034521;28;20386;-78
2021/05/08 06:04:33;;;;;;;11.50;5.10;;;;;;;20.91;43.32;99263.53;5018608;28;20147;-77
2021/05/08 06:06:59;;;;;;;11.40;5.97;;;;;;;20.92;42.53;99260.59;5035922;28;20028;-75
2021/05/08 06:09:26;;;;;;;9.40;5.40;;;;;;;20.68;42.45;99229.72;5016958;28;20029;-77
2021/05/08 06:11:53;;;;;;;11.40;5.72;;;;;;;21.14;41.97;99270.47;5034312;28;20105;-77
2021/05/08 06:14:19;;;;;;;10.45;6.07;;;;;;;20.90;42.13;99229.72;5017054;28;20021;-78
2021/05/08 06:16:44;;;;;;;18.45;8.40;;;;;;;21.11;41.62;99285.22;5034491;28;20390;-77
2021/05/08 06:19:09;;;;;;;17.08;8.18;;;;;;;21.10;41.45;99285.47;5034392;28;20022;-77
2021/05/08 06:21:35;;;;;;;15.00;7.18;;;;;;;21.22;41.06;99299.56;5034448;28;20029;-75
2021/05/08 06:24:01;;;;;;;13.68;6.30;;;;;;;21.03;41.00;99291.03;5016773;28;20228;-77
2021/05/08 06:26:26;;;;;;;18.60;6.85;;;;;;;20.63;40.30;99240.38;5033892;28;20114;-77
2021/05/08 06:28:52;;;;;;;13.05;6.60;;;;;;;20.96;40.76;99292.31;5034324;28;20102;-77
2021/05/08 06:31:17;;;;;;;13.00;6.03;;;;;;;21.04;40.48;99302.59;5034401;28;20021;-76
2021/05/08 06:33:42;;;;;;;12.70;6.18;;;;;;;20.85;40.58;99276.09;5034108;28;20036;-77
2021/05/08 06:36:08;;;;;;;10.52;6.22;;;;;;;20.82;40.33;99271.22;5034048;28;20029;-75
2021/05/08 06:38:33;;;;;;;10.85;6.05;;;;;;;21.16;40.11;99316.69;5034411;28;20317;-77
2021/05/08 06:40:58;;;;;;;11.52;6.20;;;;;;;21.17;40.24;99318.28;5034693;28;20117;-78
2021/05/08 06:43:24;;;;;;;11.98;6.07;;;;;;;21.24;40.43;99335.88;5034053;28;20029;-76
2021/05/08 06:45:49;;;;;;;9.95;6.28;;;;;;;21.16;40.27;99282.59;5034141;28;20032;-77
2021/05/08 06:48:15;;;;;;;11.60;6.30;;;;;;;21.42;39.82;99337.38;5034013;28;20104;-77
2021/05/08 06:50:45;;;;;;;11.43;5.78;;;;;;;21.51;39.16;99338.56;5016495;28;20021;-76
2021/05/08 06:53:11;;;;;;;9.60;6.25;;;;;;;21.62;39.59;99349.41;5033965;28;20447;-78
2021/05/08 06:55:36;;;;;;;11.48;6.10;;;;;;;21.42;39.17;99312.41;5034034;28;20033;-77
2021/05/08 06:58:01;;;;;;;8.82;5.43;;;;;;;21.70;38.77;99349.75;5033953;28;20030;-77
2021/05/08 07:00:27;;;;;;;20.60;6.38;;;;;;;21.57;38.33;99342.13;5033900;28;20108;-76
2021/05/08 07:02:53;;;;;;;11.25;5.43;;;;;;;21.37;38.40;99331.97;5034097;28;20407;-75
2021/05/08 07:05:18;;;;;;;17.08;6.03;;;;;;;21.53;38.39;99349.84;5016487;28;20025;-76
2021/05/08 07:07:44;;;;;;;7.63;5.95;;;;;;;21.05;38.78;99323.81;5033940;28;20017;-76
2021/05/08 07:10:10;;;;;;;8.43;5.38;;;;;;;21.37;38.63;99361.50;5037340;28;20112;-76
2021/05/08 07:12:35;;;;;;;10.35;5.75;;;;;;;20.99;39.08;99346.28;5019654;28;20087;-78
2021/05/08 07:15:01;;;;;;;10.82;5.85;;;;;;;21.25;38.90;99388.50;5037487;28;20017;-76
2021/05/08 07:17:26;;;;;;;12.77;6.78;;;;;;;21.04;38.96;99335.59;5038798;28;20444;-77
2021/05/08 07:19:52;;;;;;;5.97;5.20;;;;;;;20.97;38.83;99342.22;5021806;28;20317;-78
2021/05/08 07:22:17;;;;;;;10.77;5.60;;;;;;;20.86;38.57;99336.75;5037996;28;20018;-76
2021/05/08 07:24:43;;;;;;;7.00;5.45;;;;;;;20.76;39.01;99322.38;5037705;28;20029;-77
2021/05/08 07:27:08;;;;;;;10.93;6.15;;;;;;;20.59;39.11;99292.91;5019820;28;20075;-77
2021/05/08 07:29:33;;;;;;;10.32;5.50;;;;;;;21.01;39.14;99356.78;5036906;28;20044;-78
2021/05/08 07:31:59;;;;;;;8.07;5.38;;;;;;;20.71;39.06;99320.44;5036986;28;20321;-77
2021/05/08 07:34:25;;;;;;;9.68;5.35;;;;;;;21.07;39.09;99388.00;5037087;28;20037;-77
2021/05/08 07:36:51;;;;;;;7.82;5.95;;;;;;;21.01;39.31;99368.31;5036922;28;20025;-75
2021/05/08 07:39:16;;;;;;;9.35;5.20;;;;;;;21.01;39.23;99364.84;5036868;28;20325;-76
2021/05/08 07:41:42;;;;;;;8.70;5.75;;;;;;;21.18;39.27;99371.75;5042923;28;20088;-75
2021/05/08 07:44:08;;;;;;;9.57;5.90;;;;;;;20.89;39.24;99314.78;5040892;28;20339;-78
2021/05/08 07:46:33;;;;;;;9.68;5.47;;;;;;;21.42;39.22;99376.88;5036584;28;20025;-76
2021/05/08 07:48:59;;;;;;;7.90;4.78;;;;;;;21.53;38.81;99368.66;5036732;28;20347;-77
2021/05/08 07:51:25;;;;;;;7.15;4.65;;;;;;;21.67;38.24;99379.84;5018988;28;20041;-77
2021/05/08 07:53:50;;;;;;;8.65;4.32;;;;;;;21.49;37.80;99318.38;5036703;28;20498;-77
2021/05/08 07:56:15;;;;;;;6.32;5.00;;;;;;;21.94;37.51;99366.38;5018792;28;20021;-77
2021/05/08 07:58:41;;;;;;;15.75;4.40;;;;;;;21.55;37.42;99304.78;5036552;28;20044;-75
2021/05/08 08:01:06;;;;;;;5.55;4.38;;;;;;;21.78;36.94;99340.44;5018706;28;20324;-77
2021/05/08 08:03:32;;;;;;;6.80;4.45;;;;;;;21.75;36.74;99314.06;5018986;28;20032;-78
2021/05/08 08:05:57;;;;;;;9.80;4.75;;;;;;;21.93;36.80;99348.63;5018847;28;20067;-77
2021/05/08 08:08:23;;;;;;;5.88;3.97;;;;;;;22.12;36.83;99366.00;5018779;28;20032;-77
2021/05/08 08:10:48;;;;;;;7.78;4.72;;;;;;;22.03;36.65;99345.22;5036547;28;20025;-78
2021/05/08 08:13:14;;;;;;;6.15;4.43;;;;;;;22.28;36.44;99377.69;5036062;28;20036;-78
2021/05/08 08:15:39;;;;;;;7.25;4.75;;;;;;;22.16;36.30;99329.47;5036334;28;20109;-77
2021/05/08 08:18:09;;;;;;;18.13;4.63;;;;;;;22.44;35.97;99365.97;5018618;28;20032;-77
2021/05/08 08:20:34;;;;;;;6.13;4.30;;;;;;;22.42;35.96;99351.16;5035565;28;20613;-75
2021/05/08 08:23:00;;;;;;;7.88;4.63;;;;;;;22.78;35.60;99381.75;5036130;28;20041;-78
2021/05/08 08:25:25;;;;;;;4.47;4.07;;;;;;;22.82;35.09;99369.44;5035957;28;20119;-75
2021/05/08 08:27:52;;;;;;;9.23;4.72;;;;;;;22.64;35.07;99359.09;5035945;28;20029;-78
2021/05/08 08:30:17;;;;;;;8.73;4.95;;;;;;;22.79;34.89;99378.81;5018365;28;20071;-77
2021/05/08 08:32:43;;;;;;;7.38;4.90;;;;;;;22.88;34.98;99365.69;5035834;28;20383;-77
2021/05/08 08:35:09;;;;;;;10.73;4.97;;;;;;;22.93;34.97;99381.06;5035794;28;20021;-77
2021/05/08 08:37:35;;;;;;;7.82;4.90;;;;;;;22.91;34.75;99367.84;5035783;28;20056;-77
2021/05/08 08:40:02;;;;;;;8.00;4.95;;;;;;;23.08;35.01;99390.03;5018333;28;20057;-77
2021/05/08 08:42:28;;;;;;;6.93;4.68;;;;;;;22.97;34.86;99364.13;5035508;28;20033;-77
2021/05/08 08:44:56;;;;;;;5.30;4.80;;;;;;;23.24;34.89;99404.38;5018025;28;20021;-79
2021/05/08 08:47:31;;;;;;;7.47;5.13;;;;;;;23.07;35.00;99368.75;5017896;28;20158;-76
2021/05/08 08:50:02;;;;;;;7.97;4.80;;;;;;;23.17;34.77;99379.56;5035840;28;20416;-77
2021/05/08 08:52:28;;;;;;;6.55;4.72;;;;;;;23.55;34.58;99413.38;5035360;28;20048;-78
2021/05/08 08:54:56;;;;;;;9.38;5.40;;;;;;;23.51;34.71;99406.06;5035525;28;20115;-77
2021/05/08 08:57:32;;;;;;;8.52;5.32;;;;;;;23.06;34.64;99375.22;5035241;28;20104;-78
2021/05/08 08:59:59;;;;;;;11.57;5.95;;;;;;;22.98;34.95;99416.09;5017840;28;20053;-78
2021/05/08 09:02:26;;;;;;;8.02;5.72;;;;;;;23.12;34.79;99423.44;5035185;28;20029;-78
2021/05/08 09:04:53;;;;;;;7.53;6.22;;;;;;;22.80;34.76;99395.81;5017775;28;20029;-78
2021/05/08 09:07:20;;;;;;;7.30;6.40;;;;;;;23.03;34.83;99430.38;5035186;28;20055;-78
2021/05/08 09:09:49;;;;;;;6.50;5.40;;;;;;;22.77;34.94;99380.97;5035206;28;20033;-78
2021/05/08 09:12:15;;;;;;;15.00;6.18;;;;;;;22.97;35.12;99401.00;5017442;28;20040;-77
2021/05/08 09:14:48;;;;;;;10.30;5.63;;;;;;;23.13;34.89;99400.84;5017477;28;20026;-76
2021/05/08 09:17:15;;;;;;;8.35;5.50;;;;;;;23.54;34.51;99417.13;5035800;28;20036;-79
2021/05/08 09:19:45;;;;;;;8.27;5.55;;;;;;;23.77;34.19;99423.94;5043165;28;20108;-74
2021/05/08 09:22:26;;;;;;;6.15;5.53;;;;;;;23.83;33.79;99409.41;5034865;28;20415;-77
2021/05/08 09:25:01;;;;;;;9.90;5.67;;;;;;;23.89;33.78;99381.38;5035049;28;20029;-76
2021/05/08 09:27:55;;;;;;;9.07;6.22;;;;;;;24.20;33.33;99401.06;5034659;28;20045;-77
2021/05/08 09:30:26;;;;;;;6.43;5.40;;;;;;;24.45;33.04;99404.84;5017262;28;20036;-76
2021/05/08 09:33:04;;;;;;;10.53;5.50;;;;;;;24.41;33.03;99391.09;5034067;28;20045;-80
2021/05/08 09:35:34;;;;;;;8.65;5.38;;;;;;;24.70;32.62;99413.72;5034676;28;20256;-77
2021/05/08 09:38:10;;;;;;;8.05;5.43;;;;;;;24.64;32.56;99422.94;5034773;28;20025;-78
2021/05/08 09:40:37;;;;;;;7.68;5.15;;;;;;;24.44;32.81;99425.63;5017214;28;20052;-78
2021/05/08 09:43:12;;;;;;;6.68;5.65;;;;;;;24.08;32.81;99401.34;5034791;28;20100;-76
2021/05/08 09:45:39;;;;;;;6.95;5.40;;;;;;;24.36;32.94;99423.47;5034871;28;20037;-78
2021/05/08 09:48:27;;;;;;;9.88;5.68;;;;;;;24.58;32.92;99424.03;5017091;28;20033;-78
2021/05/08 09:51:00;;;;;;;6.40;5.20;;;;;;;24.75;32.79;99428.31;5022661;28;20037;-77
2021/05/08 09:53:29;;;;;;;9.98;5.13;;;;;;;24.93;31.84;99416.91;5034511;28;20040;-77
2021/05/08 09:55:55;;;;;;;5.00;4.43;;;;;;;24.83;31.81;99387.25;5017037;28;20030;-76
2021/05/08 09:58:25;;;;;;;6.53;5.50;;;;;;;25.10;31.72;99430.94;5034581;28;20083;-75
2021/05/08 10:00:53;;;;;;;6.18;5.57;;;;;;;25.08;31.54;99418.78;5034470;28;20091;-76
2021/05/08 10:03:20;;;;;;;5.45;4.90;;;;;;;25.31;31.49;99435.19;5034324;28;20033;-78
2021/05/08 10:05:58;;;;;;;6.20;5.63;;;;;;;25.61;30.13;99436.13;5034495;28;20094;-77
2021/05/08 10:08:23;;;;;;;5.53;4.97;;;;;;;25.74;30.34;99432.81;5034402;28;20104;-76
2021/05/08 10:10:49;;;;;;;6.63;5.30;;;;;;;25.98;30.03;99458.09;5017102;28;20113;-77
2021/05/08 10:13:15;;;;;;;5.25;4.75;;;;;;;25.89;29.75;99443.53;5034247;28;20391;-77
2021/05/08 10:15:41;;;;;;;5.25;4.63;;;;;;;26.02;29.76;99447.53;5034230;28;20041;-75
2021/05/08 10:18:16;;;;;;;6.22;4.95;;;;;;;25.61;29.99;99392.84;5016793;28;20025;-77
2021/05/08 10:20:42;;;;;;;6.72;5.15;;;;;;;26.02;30.13;99449.44;5034422;28;20026;-75
2021/05/08 10:23:11;;;;;;;8.18;5.18;;;;;;;26.03;29.96;99449.16;5034289;28;20025;-77
2021/05/08 10:25:38;;;;;;;5.85;5.35;;;;;;;26.00;29.88;99436.16;5034293;28;20029;-76
2021/05/08 10:28:05;;;;;;;7.47;5.55;;;;;;;26.12;29.65;99423.09;5034142;28;20105;-76
2021/05/08 10:30:40;;;;;;;6.00;4.80;;;;;;;26.48;28.88;99442.59;5016717;28;20432;-75
2021/05/08 10:33:11;;;;;;;7.85;5.45;;;;;;;26.45;29.12;99431.50;5034228;28;20065;-78
2021/05/08 10:35:38;;;;;;;5.95;5.38;;;;;;;26.61;29.12;99424.84;5034275;28;20030;-78
2021/05/08 10:38:19;;;;;;;6.90;6.20;;;;;;;26.66;28.66;99429.41;5034268;28;20029;-78
2021/05/08 10:40:49;;;;;;;7.65;5.00;;;;;;;26.56;29.08;99435.75;5034026;28;20037;-78
2021/05/08 10:43:56;;;;;;;6.13;5.18;;;;;;;26.19;29.51;99417.38;5017057;28;20424;-78
2021/05/08 10:46:31;;;;;;;9.30;6.88;;;;;;;26.10;30.22;99438.00;4957824;29;20092;-77
2021/05/08 10:49:09;;;;;;;7.40;5.63;;;;;;;26.08;30.51;99440.19;4957898;29;20042;-76
2021/05/08 10:51:53;;;;;;;7.43;6.38;;;;;;;26.67;29.58;99448.09;5008031;28;20064;-77
2021/05/08 10:54:37;;;;;;;8.95;5.32;;;;;;;26.92;29.23;99455.97;5043204;28;20396;-77
2021/05/08 10:57:15;;;;;;;9.50;6.05;;;;;;;27.34;28.44;99450.91;5025583;28;20052;-76
2021/05/08 11:00:02;;;;;;;8.63;5.13;;;;;;;27.23;28.42;99444.81;5037656;28;20040;-78
2021/05/08 11:02:40;;;;;;;5.85;4.65;;;;;;;26.73;29.33;99459.69;5037408;28;20112;-75
2021/05/08 11:05:28;;;;;;;6.13;5.32;;;;;;;26.45;29.73;99445.84;5037755;28;20025;-77
2021/05/08 11:07:54;;;;;;;6.55;4.40;;;;;;;26.20;29.93;99463.09;5037492;28;20033;-77
2021/05/08 11:10:32;;;;;;;8.00;5.03;;;;;;;26.21;29.49;99461.19;5037353;28;20037;-78
2021/05/08 11:13:11;;;;;;;5.53;5.03;;;;;;;26.04;29.79;99448.06;5019727;28;20029;-77
2021/05/08 11:15:51;;;;;;;6.78;5.05;;;;;;;25.92;30.03;99447.59;5037445;28;20025;-77
2021/05/08 11:21:02;;;;;;;8.23;4.93;;;;;;;25.45;30.26;99388.63;5037259;28;20559;-78
2021/05/08 11:23:46;;;;;;;6.38;5.78;;;;;;;25.83;30.26;99433.84;5037129;28;20028;-79
2021/05/08 11:26:29;;;;;;;5.50;4.97;;;;;;;25.67;30.23;99434.22;5037318;28;20037;-77
2021/05/08 11:28:59;;;;;;;6.00;5.40;;;;;;;25.75;30.23;99442.56;5037098;28;20033;-77
2021/05/08 11:31:46;;;;;;;5.53;4.93;;;;;;;25.83;29.79;99449.28;5019411;28;20079;-77
2021/05/08 11:34:31;;;;;;;6.35;4.57;;;;;;;25.69;29.15;99449.09;5019420;28;20026;-76
2021/05/08 11:37:08;;;;;;;7.82;5.60;;;;;;;26.02;29.49;99468.38;5037083;28;20021;-77